»·PEaware :: AAL717 KCOS-KGJT

AAL717 :: KCOS-KGJT

FLIGHT INFORMATION

Flight Status: Arrived
Operator:
American Airlines
More flights by this operator :: More flights under this callsign
Pilot: Ty S. (2873)
Aircraft: MCDONNELL-DOUGLAS MD-88
(MD88)
More flights by this aircraft type
Origin: KCOS City Of Colorado Springs Mun
United States
Destination: KGJT Walker
United States
More flights between these airports :: More routes between these airports
Route: +COS5 BRK FQF J80 JNC
File this flight plan on PilotEdge
Remarks:
Altitude:
(Current/Filed)
36,000ft
Speed:
(Current/Filed)
447kts
Departed: 29-Sep-17 06:06 PM
Arrived: 29-Sep-17 07:01 PM
Distance/Time
Traveled:
179nm/0:55
Distance/Time
To Go:
Arrived

Flight Plot

Page will automatically refresh every two minutes.

Flight plan parsing failed; only flown route is shown


Map Options




Map Legend


Flown Route
Filed Route
Departure Airport
Arrival Airport
Navaid (VOR, NDB)
Fix

Horizontal Profiles

Position Reports

Time Latitude Longitude Heading Altitude Ground
Speed
29-Sep-17 17:44 38.799737 -104.700148 263 6206ft 0kts
29-Sep-17 17:45 38.799737 -104.700148 263 6206ft 0kts
29-Sep-17 17:46 38.799737 -104.700148 263 6206ft 0kts
29-Sep-17 17:47 38.799737 -104.700148 263 6206ft 0kts
29-Sep-17 17:48 38.799737 -104.700148 263 6206ft 0kts
29-Sep-17 17:49 38.799737 -104.700148 263 6206ft 0kts
29-Sep-17 17:50 38.799737 -104.700148 263 6206ft 0kts
29-Sep-17 17:51 38.799737 -104.700148 263 6206ft 0kts
29-Sep-17 17:52 38.799737 -104.700148 263 6206ft 0kts
29-Sep-17 17:53 38.799737 -104.700148 263 6206ft 0kts
29-Sep-17 17:54 38.799737 -104.700148 263 6206ft 0kts
29-Sep-17 17:55 38.799737 -104.700148 263 6206ft 0kts
29-Sep-17 17:56 38.799737 -104.700148 263 6206ft 0kts
29-Sep-17 17:57 38.799737 -104.700148 263 6206ft 0kts
29-Sep-17 17:58 38.799737 -104.700148 263 6206ft 0kts
29-Sep-17 17:59 38.799737 -104.700148 263 6206ft 0kts
29-Sep-17 18:00 38.799737 -104.700148 263 6206ft 0kts
29-Sep-17 18:01 38.799737 -104.700148 263 6206ft 0kts
29-Sep-17 18:02 38.799746 -104.700023 267 6206ft 3kts
29-Sep-17 18:03 38.799626 -104.699477 307 6206ft 0kts
29-Sep-17 18:04 38.800723 -104.698267 87 6206ft 16kts
29-Sep-17 18:05 38.802795 -104.695416 90 6206ft 20kts
29-Sep-17 18:06 38.803346 -104.687848 3 6206ft 17kts
29-Sep-17 18:07 38.811031 -104.687848 0 6206ft 32kts
29-Sep-17 18:08 38.815817 -104.687649 45 6206ft 0kts
29-Sep-17 18:09 38.815511 -104.685761 178 6206ft 8kts
29-Sep-17 18:10 38.798947 -104.685742 179 6207ft 143kts
29-Sep-17 18:11 38.753731 -104.686408 178 7421ft 177kts
29-Sep-17 18:12 38.693751 -104.686579 178 8529ft 257kts
29-Sep-17 18:13 38.613826 -104.686196 178 10166ft 317kts
29-Sep-17 18:14 38.547673 -104.626637 93 12368ft 343kts
29-Sep-17 18:15 38.588891 -104.522588 20 14834ft 357kts
29-Sep-17 18:16 38.684228 -104.543103 345 17621ft 350kts
29-Sep-17 18:17 38.781032 -104.575771 340 19004ft 380kts
29-Sep-17 18:18 38.885596 -104.612779 340 20589ft 399kts
29-Sep-17 18:19 38.996927 -104.634435 358 22383ft 418kts
29-Sep-17 18:20 39.110134 -104.630884 356 23914ft 429kts
29-Sep-17 18:21 39.229184 -104.628874 355 25419ft 437kts
29-Sep-17 18:22 39.352202 -104.626948 355 26740ft 448kts
29-Sep-17 18:23 39.477793 -104.624978 355 27904ft 459kts
29-Sep-17 18:24 39.604783 -104.630173 335 28901ft 453kts
29-Sep-17 18:25 39.674341 -104.726260 279 29677ft 413kts
29-Sep-17 18:26 39.665424 -104.869679 257 30759ft 401kts
29-Sep-17 18:27 39.647842 -105.010613 258 31915ft 396kts
29-Sep-17 18:28 39.631270 -105.150375 258 32963ft 391kts
29-Sep-17 18:29 39.615114 -105.288458 258 33893ft 386kts
29-Sep-17 18:30 39.599206 -105.425531 258 34633ft 385kts
29-Sep-17 18:31 39.583533 -105.562382 258 35264ft 384kts
29-Sep-17 18:32 39.568060 -105.698653 258 35844ft 384kts
29-Sep-17 18:33 39.552805 -105.834692 258 36382ft 384kts
29-Sep-17 18:34 39.537898 -105.969023 258 36477ft 376kts
29-Sep-17 18:35 39.523074 -106.103826 259 36458ft 382kts
29-Sep-17 18:36 39.508311 -106.239618 259 36452ft 382kts
29-Sep-17 18:37 39.493675 -106.375565 259 36450ft 382kts
29-Sep-17 18:38 39.479223 -106.511380 259 36448ft 382kts
29-Sep-17 18:39 39.464895 -106.647516 260 36393ft 383kts
29-Sep-17 18:40 39.452115 -106.770544 259 35382ft 360kts
29-Sep-17 18:41 39.438796 -106.895162 257 34466ft 345kts
29-Sep-17 18:42 39.415957 -107.016372 254 32842ft 357kts
29-Sep-17 18:43 39.391615 -107.141465 254 31043ft 362kts
29-Sep-17 18:44 39.367055 -107.268456 255 29211ft 370kts
29-Sep-17 18:45 39.342137 -107.397318 254 27465ft 367kts
29-Sep-17 18:46 39.316296 -107.523215 254 25506ft 359kts
29-Sep-17 18:47 39.290945 -107.645581 254 23574ft 349kts
29-Sep-17 18:48 39.267519 -107.759348 254 21803ft 345kts
29-Sep-17 18:49 39.243149 -107.878166 254 19965ft 340kts
29-Sep-17 18:50 39.220800 -107.987583 254 18434ft 331kts
29-Sep-17 18:51 39.202982 -108.102419 276 16918ft 333kts
29-Sep-17 18:52 39.221923 -108.218462 279 15256ft 329kts
29-Sep-17 18:53 39.240592 -108.332724 280 13536ft 323kts
29-Sep-17 18:54 39.255881 -108.446975 279 11788ft 323kts
29-Sep-17 18:55 39.270485 -108.558835 279 10413ft 299kts
29-Sep-17 18:56 39.293987 -108.649994 300 10015ft 260kts
29-Sep-17 18:57 39.329737 -108.731118 299 10005ft 268kts
29-Sep-17 18:58 39.349522 -108.818974 240 9647ft 271kts
29-Sep-17 18:59 39.285788 -108.819339 129 8963ft 269kts
29-Sep-17 19:00 39.246217 -108.747521 124 8225ft 217kts
29-Sep-17 19:01 39.213327 -108.687236 125 7219ft 201kts
29-Sep-17 19:02 39.183012 -108.631839 125 6330ft 163kts
29-Sep-17 19:03 39.157952 -108.586233 125 5652ft 159kts
29-Sep-17 19:04 39.133030 -108.540841 124 4866ft 149kts
29-Sep-17 19:05 39.122946 -108.526110 243 4863ft 14kts

Navigation Log

Ident Type
Flight plan parsing failed, navigation log unavailable